Terminal Aerodrome Forecast
Issued by NWS Cleveland, OH

Home | Current Version | Previous Version | Graphics & Text | Print | Product List | Glossary On
Versions: 1 2 3 4 5 6 7 8 9 10 11 12 13 14 15 16 17 18 19 20 21 22 23 24
000
FTUS41 KCLE 260800 AAA
TAFYNG
TAF AMD
KYNG 260851Z 2609/2706 01006KT 5SM BR OVC008
     FM261200 01005KT 5SM -RA BR OVC008
     FM261400 35008KT 1SM -RA BR OVC008
     FM261800 32008KT 2SM -RA BR OVC012
     FM270000 29006KT P6SM OVC025
     FM270400 28007KT P6SM OVC035=

USA.gov is the U.S. government's official web portal to all federal, state and local government web resources and services.